sensor_id;sensor_type;location;lat;lon;timestamp;pressure;altitude;pressure_sealevel;temperature;humidity
56402;BME280;42299;35.160;26.100;2023-04-08T00:00:45;101368.19;;;12.22;100.00
56402;BME280;42299;35.160;26.100;2023-04-08T00:02:07;101369.09;;;12.23;100.00
56402;BME280;42299;35.160;26.100;2023-04-08T00:03:29;101358.50;;;12.23;100.00
56402;BME280;42299;35.160;26.100;2023-04-08T00:04:53;101359.41;;;12.23;100.00
56402;BME280;42299;35.160;26.100;2023-04-08T00:06:14;101366.50;;;12.24;100.00
56402;BME280;42299;35.160;26.100;2023-04-08T00:07:36;101368.28;;;12.25;100.00
56402;BME280;42299;35.160;26.100;2023-04-08T00:08:57;101368.31;;;12.27;100.00
56402;BME280;42299;35.160;26.100;2023-04-08T00:10:20;101373.66;;;12.30;100.00
56402;BME280;42299;35.160;26.100;2023-04-08T00:11:43;101367.50;;;12.31;100.00
56402;BME280;42299;35.160;26.100;2023-04-08T00:13:06;101375.47;;;12.32;100.00
56402;BME280;42299;35.160;26.100;2023-04-08T00:14:27;101371.88;;;12.30;100.00
56402;BME280;42299;35.160;26.100;2023-04-08T00:15:49;101366.53;;;12.26;100.00
56402;BME280;42299;35.160;26.100;2023-04-08T00:17:11;101354.94;;;12.19;100.00
56402;BME280;42299;35.160;26.100;2023-04-08T00:18:33;101356.63;;;12.16;100.00
56402;BME280;42299;35.160;26.100;2023-04-08T00:19:57;101359.22;;;12.13;100.00
56402;BME280;42299;35.160;26.100;2023-04-08T00:21:20;101353.94;;;12.13;100.00
56402;BME280;42299;35.160;26.100;2023-04-08T00:22:43;101358.38;;;12.14;100.00
56402;BME280;42299;35.160;26.100;2023-04-08T00:24:05;101359.25;;;12.16;100.00
56402;BME280;42299;35.160;26.100;2023-04-08T00:25:28;101359.25;;;12.16;100.00
56402;BME280;42299;35.160;26.100;2023-04-08T00:26:51;101361.03;;;12.17;100.00
56402;BME280;42299;35.160;26.100;2023-04-08T00:28:13;101357.50;;;12.16;100.00
56402;BME280;42299;35.160;26.100;2023-04-08T00:29:35;101353.09;;;12.17;100.00
56402;BME280;42299;35.160;26.100;2023-04-08T00:30:57;101347.00;;;12.19;100.00
56402;BME280;42299;35.160;26.100;2023-04-08T00:32:20;101343.53;;;12.23;100.00
56402;BME280;42299;35.160;26.100;2023-04-08T00:33:42;101344.38;;;12.22;100.00
56402;BME280;42299;35.160;26.100;2023-04-08T00:35:06;101336.47;;;12.24;100.00
56402;BME280;42299;35.160;26.100;2023-04-08T00:36:28;101333.91;;;12.27;100.00
56402;BME280;42299;35.160;26.100;2023-04-08T00:37:50;101325.97;;;12.28;100.00
56402;BME280;42299;35.160;26.100;2023-04-08T00:39:13;101315.41;;;12.30;100.00
56402;BME280;42299;35.160;26.100;2023-04-08T00:40:35;101306.53;;;12.28;100.00
56402;BME280;42299;35.160;26.100;2023-04-08T00:42:00;101324.09;;;12.23;100.00
56402;BME280;42299;35.160;26.100;2023-04-08T00:43:23;101335.41;;;12.14;100.00
56402;BME280;42299;35.160;26.100;2023-04-08T00:44:44;101343.25;;;12.10;100.00
56402;BME280;42299;35.160;26.100;2023-04-08T00:46:06;101337.13;;;12.11;100.00
56402;BME280;42299;35.160;26.100;2023-04-08T00:47:30;101331.81;;;12.11;100.00
56402;BME280;42299;35.160;26.100;2023-04-08T00:48:53;101330.06;;;12.11;100.00
56402;BME280;42299;35.160;26.100;2023-04-08T00:50:16;101330.00;;;12.08;100.00
56402;BME280;42299;35.160;26.100;2023-04-08T00:51:38;101326.50;;;12.08;100.00
56402;BME280;42299;35.160;26.100;2023-04-08T00:53:00;101322.91;;;12.06;100.00
56402;BME280;42299;35.160;26.100;2023-04-08T00:54:22;101315.84;;;12.05;100.00
56402;BME280;42299;35.160;26.100;2023-04-08T00:55:44;101315.81;;;12.03;100.00
56402;BME280;42299;35.160;26.100;2023-04-08T00:57:07;101306.06;;;12.01;100.00
56402;BME280;42299;35.160;26.100;2023-04-08T00:58:30;101311.25;;;11.96;100.00
56402;BME280;42299;35.160;26.100;2023-04-08T00:59:53;101306.81;;;11.93;100.00
56402;BME280;42299;35.160;26.100;2023-04-08T01:01:20;101306.81;;;11.93;100.00
56402;BME280;42299;35.160;26.100;2023-04-08T01:02:48;101300.66;;;11.94;100.00
56402;BME280;42299;35.160;26.100;2023-04-08T01:04:16;101294.47;;;11.95;100.00
56402;BME280;42299;35.160;26.100;2023-04-08T01:05:48;101290.94;;;11.93;100.00
56402;BME280;42299;35.160;26.100;2023-04-08T01:07:16;101299.78;;;11.94;100.00
56402;BME280;42299;35.160;26.100;2023-04-08T01:08:41;101305.91;;;11.93;100.00
56402;BME280;42299;35.160;26.100;2023-04-08T01:10:06;101302.31;;;11.89;100.00
56402;BME280;42299;35.160;26.100;2023-04-08T01:11:34;101289.03;;;11.86;100.00
56402;BME280;42299;35.160;26.100;2023-04-08T01:12:58;101283.63;;;11.80;100.00
56402;BME280;42299;35.160;26.100;2023-04-08T01:14:24;101278.25;;;11.74;100.00
56402;BME280;42299;35.160;26.100;2023-04-08T01:15:46;101279.84;;;11.69;100.00
56402;BME280;42299;35.160;26.100;2023-04-08T01:17:10;101271.00;;;11.67;100.00
56402;BME280;42299;35.160;26.100;2023-04-08T01:18:32;101261.28;;;11.66;100.00
56402;BME280;42299;35.160;26.100;2023-04-08T01:19:58;101250.72;;;11.66;100.00
56402;BME280;42299;35.160;26.100;2023-04-08T01:21:21;101246.25;;;11.64;100.00
56402;BME280;42299;35.160;26.100;2023-04-08T01:22:57;101245.31;;;11.60;100.00
56402;BME280;42299;35.160;26.100;2023-04-08T01:24:28;101247.03;;;11.58;100.00
56402;BME280;42299;35.160;26.100;2023-04-08T01:25:53;101257.59;;;11.58;100.00
56402;BME280;42299;35.160;26.100;2023-04-08T01:27:16;101261.13;;;11.58;100.00
56402;BME280;42299;35.160;26.100;2023-04-08T01:28:40;101263.75;;;11.57;100.00
56402;BME280;42299;35.160;26.100;2023-04-08T01:30:04;101272.53;;;11.56;100.00
56402;BME280;42299;35.160;26.100;2023-04-08T01:31:27;101287.50;;;11.55;100.00
56402;BME280;42299;35.160;26.100;2023-04-08T01:32:53;101288.38;;;11.54;100.00
56402;BME280;42299;35.160;26.100;2023-04-08T01:34:18;101296.31;;;11.56;100.00
56402;BME280;42299;35.160;26.100;2023-04-08T01:35:41;101293.75;;;11.59;100.00
56402;BME280;42299;35.160;26.100;2023-04-08T01:37:03;101296.44;;;11.62;100.00
56402;BME280;42299;35.160;26.100;2023-04-08T01:38:29;101290.38;;;11.66;100.00
56402;BME280;42299;35.160;26.100;2023-04-08T01:39:51;101296.59;;;11.70;100.00
56402;BME280;42299;35.160;26.100;2023-04-08T01:41:16;101294.94;;;11.73;100.00
56402;BME280;42299;35.160;26.100;2023-04-08T01:42:39;101294.09;;;11.76;100.00
56402;BME280;42299;35.160;26.100;2023-04-08T01:44:03;101280.97;;;11.79;100.00
56402;BME280;42299;35.160;26.100;2023-04-08T01:45:25;101285.44;;;11.83;100.00
56402;BME280;42299;35.160;26.100;2023-04-08T01:46:50;101285.47;;;11.84;100.00
56402;BME280;42299;35.160;26.100;2023-04-08T01:48:13;101297.88;;;11.87;100.00
56402;BME280;42299;35.160;26.100;2023-04-08T01:49:37;101300.53;;;11.88;100.00
56402;BME280;42299;35.160;26.100;2023-04-08T01:50:59;101304.06;;;11.87;100.00
56402;BME280;42299;35.160;26.100;2023-04-08T01:52:22;101300.53;;;11.88;100.00
56402;BME280;42299;35.160;26.100;2023-04-08T01:53:47;101292.59;;;11.88;100.00
56402;BME280;42299;35.160;26.100;2023-04-08T01:55:09;101290.84;;;11.89;100.00
56402;BME280;42299;35.160;26.100;2023-04-08T01:56:36;101283.81;;;11.91;100.00
56402;BME280;42299;35.160;26.100;2023-04-08T01:58:04;101282.97;;;11.92;100.00
56402;BME280;42299;35.160;26.100;2023-04-08T01:59:29;101279.44;;;11.91;100.00
56402;BME280;42299;35.160;26.100;2023-04-08T02:00:53;101270.59;;;11.91;100.00
56402;BME280;42299;35.160;26.100;2023-04-08T02:02:19;101268.81;;;11.90;100.00
56402;BME280;42299;35.160;26.100;2023-04-08T02:03:42;101265.28;;;11.88;100.00
56402;BME280;42299;35.160;26.100;2023-04-08T02:05:06;101268.78;;;11.87;100.00
56402;BME280;42299;35.160;26.100;2023-04-08T02:06:27;101265.22;;;11.86;100.00
56402;BME280;42299;35.160;26.100;2023-04-08T02:07:50;101271.38;;;11.85;100.00
56402;BME280;42299;35.160;26.100;2023-04-08T02:09:14;101279.28;;;11.84;100.00
56402;BME280;42299;35.160;26.100;2023-04-08T02:10:36;101288.97;;;11.83;100.00
56402;BME280;42299;35.160;26.100;2023-04-08T02:12:00;101296.06;;;11.84;100.00
56402;BME280;42299;35.160;26.100;2023-04-08T02:13:22;101297.84;;;11.85;100.00
56402;BME280;42299;35.160;26.100;2023-04-08T02:14:45;101292.53;;;11.85;100.00
56402;BME280;42299;35.160;26.100;2023-04-08T02:16:08;101294.25;;;11.83;100.00
56402;BME280;42299;35.160;26.100;2023-04-08T02:17:38;101300.53;;;11.87;100.00
56402;BME280;42299;35.160;26.100;2023-04-08T02:19:07;101309.44;;;11.92;100.00
56402;BME280;42299;35.160;26.100;2023-04-08T02:20:36;101313.91;;;11.94;100.00
56402;BME280;42299;35.160;26.100;2023-04-08T02:22:03;101312.09;;;11.93;100.00
56402;BME280;42299;35.160;26.100;2023-04-08T02:23:28;101323.59;;;11.94;100.00
56402;BME280;42299;35.160;26.100;2023-04-08T02:24:54;101327.13;;;11.94;100.00
56402;BME280;42299;35.160;26.100;2023-04-08T02:26:16;101335.09;;;11.97;100.00
56402;BME280;42299;35.160;26.100;2023-04-08T02:27:43;101326.31;;;11.98;100.00
56402;BME280;42299;35.160;26.100;2023-04-08T02:29:09;101314.88;;;12.00;100.00
56402;BME280;42299;35.160;26.100;2023-04-08T02:30:34;101318.41;;;12.00;100.00
56402;BME280;42299;35.160;26.100;2023-04-08T02:32:00;101314.91;;;12.01;100.00
56402;BME280;42299;35.160;26.100;2023-04-08T02:33:23;101316.66;;;12.02;100.00
56402;BME280;42299;35.160;26.100;2023-04-08T02:34:47;101323.69;;;12.02;100.00
56402;BME280;42299;35.160;26.100;2023-04-08T02:36:08;101325.38;;;11.96;100.00
56402;BME280;42299;35.160;26.100;2023-04-08T02:37:32;101330.63;;;11.95;100.00
56402;BME280;42299;35.160;26.100;2023-04-08T02:38:53;101328.03;;;11.96;100.00
56402;BME280;42299;35.160;26.100;2023-04-08T02:40:23;101323.63;;;11.97;100.00
56402;BME280;42299;35.160;26.100;2023-04-08T02:41:45;101335.09;;;11.97;100.00
56402;BME280;42299;35.160;26.100;2023-04-08T02:43:08;101351.06;;;12.01;100.00
56402;BME280;42299;35.160;26.100;2023-04-08T02:44:31;101350.16;;;12.02;100.00
56402;BME280;42299;35.160;26.100;2023-04-08T02:45:56;101343.13;;;12.02;100.00
56402;BME280;42299;35.160;26.100;2023-04-08T02:47:18;101342.22;;;12.02;100.00
56402;BME280;42299;35.160;26.100;2023-04-08T02:48:39;101348.41;;;12.02;100.00
56402;BME280;42299;35.160;26.100;2023-04-08T02:50:03;101350.13;;;11.98;100.00
56402;BME280;42299;35.160;26.100;2023-04-08T02:51:24;101358.88;;;11.94;100.00
56402;BME280;42299;35.160;26.100;2023-04-08T02:52:47;101364.13;;;11.93;100.00
56402;BME280;42299;35.160;26.100;2023-04-08T02:54:10;101360.59;;;11.92;100.00
56402;BME280;42299;35.160;26.100;2023-04-08T02:55:32;101379.09;;;11.92;100.00
56402;BME280;42299;35.160;26.100;2023-04-08T02:56:55;101384.41;;;11.92;100.00
56402;BME280;42299;35.160;26.100;2023-04-08T02:58:18;101397.63;;;11.92;100.00
56402;BME280;42299;35.160;26.100;2023-04-08T02:59:40;101397.63;;;11.92;100.00
56402;BME280;42299;35.160;26.100;2023-04-08T03:01:01;101394.13;;;11.95;100.00
56402;BME280;42299;35.160;26.100;2023-04-08T03:02:24;101404.78;;;11.98;100.00
56402;BME280;42299;35.160;26.100;2023-04-08T03:03:46;101405.72;;;12.02;100.00
56402;BME280;42299;35.160;26.100;2023-04-08T03:05:08;101400.50;;;12.05;100.00
56402;BME280;42299;35.160;26.100;2023-04-08T03:06:30;101399.66;;;12.06;100.00
56402;BME280;42299;35.160;26.100;2023-04-08T03:07:52;101396.13;;;12.05;100.00
56402;BME280;42299;35.160;26.100;2023-04-08T03:09:14;101397.88;;;12.05;100.00
56402;BME280;42299;35.160;26.100;2023-04-08T03:10:36;101391.72;;;12.06;100.00
56402;BME280;42299;35.160;26.100;2023-04-08T03:11:59;101386.38;;;12.04;100.00
56402;BME280;42299;35.160;26.100;2023-04-08T03:13:21;101391.69;;;12.04;100.00
56402;BME280;42299;35.160;26.100;2023-04-08T03:14:44;101392.53;;;12.03;100.00
56402;BME280;42299;35.160;26.100;2023-04-08T03:16:06;101388.13;;;12.04;100.00
56402;BME280;42299;35.160;26.100;2023-04-08T03:17:28;101383.75;;;12.04;100.00
56402;BME280;42299;35.160;26.100;2023-04-08T03:18:52;101395.25;;;12.06;100.00
56402;BME280;42299;35.160;26.100;2023-04-08T03:20:14;101397.06;;;12.09;100.00
56402;BME280;42299;35.160;26.100;2023-04-08T03:21:35;101391.81;;;12.10;100.00
56402;BME280;42299;35.160;26.100;2023-04-08T03:22:58;101392.72;;;12.12;100.00
56402;BME280;42299;35.160;26.100;2023-04-08T03:24:19;101392.72;;;12.12;100.00
56402;BME280;42299;35.160;26.100;2023-04-08T03:25:41;101398.03;;;12.12;100.00
56402;BME280;42299;35.160;26.100;2023-04-08T03:27:03;101395.38;;;12.12;100.00
56402;BME280;42299;35.160;26.100;2023-04-08T03:28:27;101394.53;;;12.13;100.00
56402;BME280;42299;35.160;26.100;2023-04-08T03:29:48;101393.66;;;12.16;100.00
56402;BME280;42299;35.160;26.100;2023-04-08T03:31:11;101394.59;;;12.18;100.00
56402;BME280;42299;35.160;26.100;2023-04-08T03:32:33;101396.38;;;12.19;100.00
56402;BME280;42299;35.160;26.100;2023-04-08T03:33:55;101403.47;;;12.21;100.00
56402;BME280;42299;35.160;26.100;2023-04-08T03:35:17;101406.16;;;12.23;100.00
56402;BME280;42299;35.160;26.100;2023-04-08T03:36:39;101395.59;;;12.24;100.00
56402;BME280;42299;35.160;26.100;2023-04-08T03:38:02;101406.22;;;12.26;100.00
56402;BME280;42299;35.160;26.100;2023-04-08T03:39:24;101394.75;;;12.25;100.00
56402;BME280;42299;35.160;26.100;2023-04-08T03:40:47;101391.25;;;12.26;100.00
56402;BME280;42299;35.160;26.100;2023-04-08T03:42:08;101392.97;;;12.24;100.00
56402;BME280;42299;35.160;26.100;2023-04-08T03:43:32;101394.72;;;12.24;100.00
56402;BME280;42299;35.160;26.100;2023-04-08T03:44:56;101396.47;;;12.23;100.00
56402;BME280;42299;35.160;26.100;2023-04-08T03:46:18;101401.75;;;12.23;100.00
56402;BME280;42299;35.160;26.100;2023-04-08T03:47:40;101397.41;;;12.25;100.00
56402;BME280;42299;35.160;26.100;2023-04-08T03:49:02;101410.66;;;12.27;100.00
56402;BME280;42299;35.160;26.100;2023-04-08T03:50:24;101414.19;;;12.27;100.00
56402;BME280;42299;35.160;26.100;2023-04-08T03:51:46;101407.16;;;12.29;100.00
56402;BME280;42299;35.160;26.100;2023-04-08T03:53:09;101408.09;;;12.31;100.00
56402;BME280;42299;35.160;26.100;2023-04-08T03:54:32;101412.50;;;12.31;100.00
56402;BME280;42299;35.160;26.100;2023-04-08T03:55:55;101410.72;;;12.30;100.00
56402;BME280;42299;35.160;26.100;2023-04-08T03:57:16;101414.28;;;12.32;100.00
56402;BME280;42299;35.160;26.100;2023-04-08T03:58:40;101399.28;;;12.34;100.00
56402;BME280;42299;35.160;26.100;2023-04-08T04:00:02;101395.78;;;12.35;100.00
56402;BME280;42299;35.160;26.100;2023-04-08T04:01:33;101403.72;;;12.33;100.00
56402;BME280;42299;35.160;26.100;2023-04-08T04:02:55;101395.75;;;12.32;100.00
56402;BME280;42299;35.160;26.100;2023-04-08T04:04:18;101388.63;;;12.29;100.00
56402;BME280;42299;35.160;26.100;2023-04-08T04:05:40;101395.69;;;12.29;100.00
56402;BME280;42299;35.160;26.100;2023-04-08T04:07:38;101391.25;;;12.26;100.00
56402;BME280;42299;35.160;26.100;2023-04-08T04:09:13;101381.44;;;12.22;100.00
56402;BME280;42299;35.160;26.100;2023-04-08T04:10:36;101364.69;;;12.23;100.00
56402;BME280;42299;35.160;26.100;2023-04-08T04:11:59;101358.59;;;12.26;100.00
56402;BME280;42299;35.160;26.100;2023-04-08T04:13:21;101361.22;;;12.27;100.00
56402;BME280;42299;35.160;26.100;2023-04-08T04:14:45;101363.03;;;12.28;100.00
56402;BME280;42299;35.160;26.100;2023-04-08T04:16:08;101357.72;;;12.28;100.00
56402;BME280;42299;35.160;26.100;2023-04-08T04:17:29;101355.06;;;12.27;100.00
56402;BME280;42299;35.160;26.100;2023-04-08T04:18:51;101340.84;;;12.22;100.00
56402;BME280;42299;35.160;26.100;2023-04-08T04:20:13;101340.81;;;12.19;100.00
56402;BME280;42299;35.160;26.100;2023-04-08T04:21:36;101342.53;;;12.17;100.00
56402;BME280;42299;35.160;26.100;2023-04-08T04:22:57;101349.59;;;12.18;100.00
56402;BME280;42299;35.160;26.100;2023-04-08T04:24:19;101358.44;;;12.18;100.00
56402;BME280;42299;35.160;26.100;2023-04-08T04:25:40;101367.28;;;12.19;100.00
56402;BME280;42299;35.160;26.100;2023-04-08T04:27:03;101374.34;;;12.20;100.00
56402;BME280;42299;35.160;26.100;2023-04-08T04:28:25;101365.53;;;12.21;100.00
56402;BME280;42299;35.160;26.100;2023-04-08T04:29:49;101356.72;;;12.22;100.00
56402;BME280;42299;35.160;26.100;2023-04-08T04:31:17;101347.91;;;12.23;100.00
56402;BME280;42299;35.160;26.100;2023-04-08T04:32:40;101345.31;;;12.24;100.00
56402;BME280;42299;35.160;26.100;2023-04-08T04:34:02;101375.31;;;12.25;100.00
56402;BME280;42299;35.160;26.100;2023-04-08T04:35:24;101390.28;;;12.23;100.00
56402;BME280;42299;35.160;26.100;2023-04-08T04:36:45;101390.22;;;12.20;100.00
56402;BME280;42299;35.160;26.100;2023-04-08T04:38:08;101387.59;;;12.21;100.00
56402;BME280;42299;35.160;26.100;2023-04-08T04:39:32;101377.97;;;12.25;100.00
56402;BME280;42299;35.160;26.100;2023-04-08T04:40:54;101363.03;;;12.27;100.00
56402;BME280;42299;35.160;26.100;2023-04-08T04:42:18;101378.09;;;12.31;100.00
56402;BME280;42299;35.160;26.100;2023-04-08T04:43:41;101373.72;;;12.33;100.00
56402;BME280;42299;35.160;26.100;2023-04-08T04:45:07;101379.03;;;12.36;100.00
56402;BME280;42299;35.160;26.100;2023-04-08T04:46:29;101379.09;;;12.37;100.00
56402;BME280;42299;35.160;26.100;2023-04-08T04:47:51;101374.69;;;12.38;100.00
56402;BME280;42299;35.160;26.100;2023-04-08T04:49:13;101372.06;;;12.40;100.00
56402;BME280;42299;35.160;26.100;2023-04-08T04:50:36;101359.72;;;12.42;100.00
56402;BME280;42299;35.160;26.100;2023-04-08T04:51:58;101359.72;;;12.42;100.00
56402;BME280;42299;35.160;26.100;2023-04-08T04:53:21;101371.22;;;12.42;100.00
56402;BME280;42299;35.160;26.100;2023-04-08T04:54:42;101372.09;;;12.43;100.00
56402;BME280;42299;35.160;26.100;2023-04-08T04:56:05;101366.81;;;12.43;100.00
56402;BME280;42299;35.160;26.100;2023-04-08T04:57:26;101359.78;;;12.45;100.00
56402;BME280;42299;35.160;26.100;2023-04-08T04:58:49;101360.72;;;12.47;100.00
56402;BME280;42299;35.160;26.100;2023-04-08T05:00:12;101361.63;;;12.49;100.00
56402;BME280;42299;35.160;26.100;2023-04-08T05:01:35;101344.00;;;12.51;100.00
56402;BME280;42299;35.160;26.100;2023-04-08T05:02:56;101342.28;;;12.54;100.00
56402;BME280;42299;35.160;26.100;2023-04-08T05:04:18;101346.78;;;12.58;100.00
56402;BME280;42299;35.160;26.100;2023-04-08T05:05:41;101339.72;;;12.57;100.00
56402;BME280;42299;35.160;26.100;2023-04-08T05:07:02;101332.63;;;12.56;100.00
56402;BME280;42299;35.160;26.100;2023-04-08T05:08:24;101329.09;;;12.56;100.00
56402;BME280;42299;35.160;26.100;2023-04-08T05:09:47;101323.75;;;12.54;100.00
56402;BME280;42299;35.160;26.100;2023-04-08T05:11:10;101328.16;;;12.54;100.00
56402;BME280;42299;35.160;26.100;2023-04-08T05:12:32;101316.66;;;12.52;100.00
56402;BME280;42299;35.160;26.100;2023-04-08T05:13:55;101326.38;;;12.51;100.00
56402;BME280;42299;35.160;26.100;2023-04-08T05:15:18;101327.16;;;12.47;100.00
56402;BME280;42299;35.160;26.100;2023-04-08T05:16:41;101318.31;;;12.45;100.00
56402;BME280;42299;35.160;26.100;2023-04-08T05:18:03;101306.91;;;12.49;100.00
56402;BME280;42299;35.160;26.100;2023-04-08T05:19:24;101299.94;;;12.56;100.00
56402;BME280;42299;35.160;26.100;2023-04-08T05:20:47;101304.47;;;12.63;100.00
56402;BME280;42299;35.160;26.100;2023-04-08T05:22:08;101298.41;;;12.70;100.00
56402;BME280;42299;35.160;26.100;2023-04-08T05:23:30;101296.78;;;12.78;100.00
56402;BME280;42299;35.160;26.100;2023-04-08T05:24:51;101297.78;;;12.88;100.00
56402;BME280;42299;35.160;26.100;2023-04-08T05:26:14;101293.53;;;12.97;100.00
56402;BME280;42299;35.160;26.100;2023-04-08T05:27:35;101295.44;;;13.06;100.00
56402;BME280;42299;35.160;26.100;2023-04-08T05:28:58;101305.25;;;13.13;100.00
56402;BME280;42299;35.160;26.100;2023-04-08T05:30:22;101301.81;;;13.19;100.00
56402;BME280;42299;35.160;26.100;2023-04-08T05:31:44;101300.09;;;13.22;100.00
56402;BME280;42299;35.160;26.100;2023-04-08T05:33:06;101289.53;;;13.27;100.00
56402;BME280;42299;35.160;26.100;2023-04-08T05:34:30;101281.63;;;13.30;100.00
56402;BME280;42299;35.160;26.100;2023-04-08T05:35:52;101279.00;;;13.33;100.00
56402;BME280;42299;35.160;26.100;2023-04-08T05:37:15;101269.31;;;13.35;100.00
56402;BME280;42299;35.160;26.100;2023-04-08T05:38:38;101266.72;;;13.38;100.00
56402;BME280;42299;35.160;26.100;2023-04-08T05:40:00;101252.59;;;13.39;100.00
56402;BME280;42299;35.160;26.100;2023-04-08T05:41:22;101255.25;;;13.42;100.00
56402;BME280;42299;35.160;26.100;2023-04-08T05:42:44;101250.00;;;13.46;100.00
56402;BME280;42299;35.160;26.100;2023-04-08T05:44:06;101250.06;;;13.52;100.00
56402;BME280;42299;35.160;26.100;2023-04-08T05:45:30;101257.22;;;13.56;100.00
56402;BME280;42299;35.160;26.100;2023-04-08T05:46:52;101251.94;;;13.61;100.00
56402;BME280;42299;35.160;26.100;2023-04-08T05:48:14;101253.75;;;13.64;100.00
56402;BME280;42299;35.160;26.100;2023-04-08T05:49:37;101251.09;;;13.64;100.00
56402;BME280;42299;35.160;26.100;2023-04-08T05:50:59;101251.06;;;13.61;100.00
56402;BME280;42299;35.160;26.100;2023-04-08T05:52:21;101240.44;;;13.57;100.00
56402;BME280;42299;35.160;26.100;2023-04-08T05:53:44;101238.63;;;13.55;100.00
56402;BME280;42299;35.160;26.100;2023-04-08T05:55:08;101241.25;;;13.52;100.00
56402;BME280;42299;35.160;26.100;2023-04-08T05:56:29;101251.81;;;13.49;100.00
56402;BME280;42299;35.160;26.100;2023-04-08T05:57:52;101265.91;;;13.46;100.00
56402;BME280;42299;35.160;26.100;2023-04-08T05:59:13;101281.78;;;13.42;100.00
56402;BME280;42299;35.160;26.100;2023-04-08T06:00:37;101287.94;;;13.39;100.00
56402;BME280;42299;35.160;26.100;2023-04-08T06:01:58;101288.81;;;13.40;100.00
56402;BME280;42299;35.160;26.100;2023-04-08T06:03:20;101290.69;;;13.47;100.00
56402;BME280;42299;35.160;26.100;2023-04-08T06:04:43;101284.56;;;13.52;100.00
56402;BME280;42299;35.160;26.100;2023-04-08T06:06:08;101285.50;;;13.59;100.00
56402;BME280;42299;35.160;26.100;2023-04-08T06:07:31;101283.84;;;13.64;100.00
56402;BME280;42299;35.160;26.100;2023-04-08T06:08:53;101295.38;;;13.69;100.00
56402;BME280;42299;35.160;26.100;2023-04-08T06:10:16;101292.75;;;13.72;100.00
56402;BME280;42299;35.160;26.100;2023-04-08T06:11:38;101290.97;;;13.73;100.00
56402;BME280;42299;35.160;26.100;2023-04-08T06:13:00;101283.06;;;13.76;100.00
56402;BME280;42299;35.160;26.100;2023-04-08T06:14:22;101288.41;;;13.79;100.00
56402;BME280;42299;35.160;26.100;2023-04-08T06:15:45;101302.59;;;13.81;100.00
56402;BME280;42299;35.160;26.100;2023-04-08T06:17:08;101310.56;;;13.82;100.00
56402;BME280;42299;35.160;26.100;2023-04-08T06:18:29;101317.66;;;13.83;100.00
56402;BME280;42299;35.160;26.100;2023-04-08T06:19:52;101322.97;;;13.86;100.00
56402;BME280;42299;35.160;26.100;2023-04-08T06:21:14;101312.41;;;13.89;100.00
56402;BME280;42299;35.160;26.100;2023-04-08T06:22:37;101312.47;;;13.94;100.00
56402;BME280;42299;35.160;26.100;2023-04-08T06:23:58;101318.69;;;13.99;100.00
56402;BME280;42299;35.160;26.100;2023-04-08T06:25:20;101311.69;;;14.04;100.00
56402;BME280;42299;35.160;26.100;2023-04-08T06:26:42;101323.28;;;14.11;100.00
56402;BME280;42299;35.160;26.100;2023-04-08T06:28:05;101316.22;;;14.16;100.00
56402;BME280;42299;35.160;26.100;2023-04-08T06:29:27;101329.53;;;14.20;100.00
56402;BME280;42299;35.160;26.100;2023-04-08T06:30:52;101338.44;;;14.25;100.00
56402;BME280;42299;35.160;26.100;2023-04-08T06:32:14;101342.91;;;14.28;100.00
56402;BME280;42299;35.160;26.100;2023-04-08T06:33:37;101347.38;;;14.30;100.00
56402;BME280;42299;35.160;26.100;2023-04-08T06:34:58;101355.34;;;14.33;100.00
56402;BME280;42299;35.160;26.100;2023-04-08T06:36:21;101363.34;;;14.35;100.00
56402;BME280;42299;35.160;26.100;2023-04-08T06:37:42;101365.16;;;14.38;100.00
56402;BME280;42299;35.160;26.100;2023-04-08T06:39:05;101369.59;;;14.39;100.00
56402;BME280;42299;35.160;26.100;2023-04-08T06:40:26;101368.75;;;14.41;100.00
56402;BME280;42299;35.160;26.100;2023-04-08T06:41:48;101367.81;;;14.39;100.00
56402;BME280;42299;35.160;26.100;2023-04-08T06:43:31;101370.47;;;14.38;100.00
56402;BME280;42299;35.160;26.100;2023-04-08T06:44:53;101381.94;;;14.36;100.00
56402;BME280;42299;35.160;26.100;2023-04-08T06:46:17;101378.38;;;14.34;100.00
56402;BME280;42299;35.160;26.100;2023-04-08T06:47:40;101371.28;;;14.33;100.00
56402;BME280;42299;35.160;26.100;2023-04-08T06:49:02;101361.53;;;14.32;100.00
56402;BME280;42299;35.160;26.100;2023-04-08T06:50:26;101369.50;;;14.32;100.00
56402;BME280;42299;35.160;26.100;2023-04-08T06:51:49;101381.91;;;14.33;100.00
56402;BME280;42299;35.160;26.100;2023-04-08T06:53:11;101386.34;;;14.34;100.00
56402;BME280;42299;35.160;26.100;2023-04-08T06:54:34;101389.91;;;14.35;100.00
56402;BME280;42299;35.160;26.100;2023-04-08T06:55:56;101389.03;;;14.36;100.00
56402;BME280;42299;35.160;26.100;2023-04-08T06:57:19;101397.91;;;14.38;100.00
56402;BME280;42299;35.160;26.100;2023-04-08T06:58:42;101405.00;;;14.39;100.00
56402;BME280;42299;35.160;26.100;2023-04-08T07:00:05;101409.44;;;14.39;100.00
56402;BME280;42299;35.160;26.100;2023-04-08T07:01:28;101422.72;;;14.39;100.00
56402;BME280;42299;35.160;26.100;2023-04-08T07:02:50;101420.09;;;14.42;100.00
56402;BME280;42299;35.160;26.100;2023-04-08T07:04:12;101427.22;;;14.43;100.00